Time;durP1;ratioP1;P1;durP2;ratioP2;P2;SDS_P1;SDS_P2;PMS_P1;PMS_P2;Temp;Humidity;BMP_temperature;BMP_pressure;BME280_temperature;BME280_humidity;BME280_pressure;Samples;Min_cycle;Max_cycle;Signal;HPM_P1;HPM_P2
2022/10/04 00:02:30;;;;;;;0.63;0.37;;;;;;;10.63;100.00;101182.44;5031683;28;20624;-73
2022/10/04 00:05:03;;;;;;;0.30;0.30;;;;;;;10.61;100.00;101187.38;5031840;28;20164;-72
2022/10/04 00:07:36;;;;;;;0.90;0.87;;;;;;;10.62;100.00;101187.09;5031553;28;20164;-72
2022/10/04 00:10:24;;;;;;;0.70;0.70;;;;;;;10.61;100.00;101196.38;5031684;28;20555;-72
2022/10/04 00:12:58;;;;;;;0.77;0.77;;;;;;;10.64;100.00;101195.78;5031743;28;20176;-72
2022/10/04 00:15:41;;;;;;;4.50;1.20;;;;;;;10.67;100.00;101178.81;5031626;28;20188;-73
2022/10/04 00:18:09;;;;;;;0.20;0.20;;;;;;;10.72;100.00;101184.22;5031472;28;20572;-73
2022/10/04 00:20:47;;;;;;;0.20;0.20;;;;;;;10.69;100.00;101182.06;5031486;28;20278;-73
2022/10/04 00:23:24;;;;;;;0.33;0.33;;;;;;;10.68;100.00;101183.16;5029982;28;20179;-73
2022/10/04 00:26:09;;;;;;;1.17;1.17;;;;;;;10.69;100.00;101171.13;5031194;28;20175;-73
2022/10/04 00:28:34;;;;;;;2.37;0.77;;;;;;;10.72;100.00;101169.75;5031307;28;20580;-72
2022/10/04 00:31:13;;;;;;;1.37;0.80;;;;;;;10.70;100.00;101167.31;5030287;28;20187;-73
2022/10/04 00:33:48;;;;;;;2.40;2.30;;;;;;;10.69;100.00;101173.84;5031795;28;20517;-73
2022/10/04 00:36:22;;;;;;;0.53;0.53;;;;;;;10.70;100.00;101171.94;5018207;28;20187;-73
2022/10/04 00:39:03;;;;;;;4.87;1.70;;;;;;;10.71;100.00;101171.66;5010667;28;20181;-72
2022/10/04 00:41:35;;;;;;;4.43;0.73;;;;;;;10.73;100.00;101174.09;5011607;28;20176;-73
2022/10/04 00:44:03;;;;;;;0.40;0.40;;;;;;;10.75;100.00;101166.41;5026677;28;20211;-73
2022/10/04 00:46:30;;;;;;;0.57;0.40;;;;;;;10.77;100.00;101166.13;5031164;28;20175;-73
2022/10/04 00:49:04;;;;;;;10.63;0.50;;;;;;;10.76;100.00;101168.03;5031184;28;20682;-73
2022/10/04 00:51:42;;;;;;;0.83;0.70;;;;;;;10.76;100.00;101156.28;5031115;28;20172;-73
2022/10/04 00:54:17;;;;;;;0.17;0.17;;;;;;;10.77;100.00;101157.91;5031080;28;20183;-73
2022/10/04 00:56:56;;;;;;;0.97;0.97;;;;;;;10.71;100.00;101149.81;5030560;28;20263;-73
2022/10/04 00:59:44;;;;;;;15.07;0.77;;;;;;;10.68;100.00;101146.81;5030952;28;20175;-74
2022/10/04 01:02:25;;;;;;;13.80;0.80;;;;;;;10.67;100.00;101145.19;5023393;28;20247;-73
2022/10/04 01:04:59;;;;;;;0.00;0.00;;;;;;;10.67;100.00;101139.72;5026625;28;20204;-73
2022/10/04 01:07:29;;;;;;;0.83;0.53;;;;;;;10.66;100.00;101138.94;5011100;28;20168;-73
2022/10/04 01:10:04;;;;;;;1.33;1.33;;;;;;;10.64;100.00;101140.34;5011110;28;20647;-73
2022/10/04 01:12:55;;;;;;;0.83;0.30;;;;;;;10.63;100.00;101144.97;5011059;28;20172;-73
2022/10/04 01:15:41;;;;;;;5.87;1.37;;;;;;;10.66;100.00;101138.13;5011130;28;20260;-73
2022/10/04 01:18:13;;;;;;;0.30;0.30;;;;;;;10.64;100.00;101138.41;5011036;28;20164;-72
2022/10/04 01:20:47;;;;;;;11.77;0.50;;;;;;;10.61;100.00;101136.28;5026097;28;20184;-73
2022/10/04 01:23:31;;;;;;;0.97;0.63;;;;;;;10.57;100.00;101132.50;5010834;28;20266;-73
2022/10/04 01:25:57;;;;;;;0.10;0.10;;;;;;;10.60;100.00;101134.66;5010788;28;20172;-73
2022/10/04 01:28:23;;;;;;;5.97;1.13;;;;;;;10.58;100.00;101119.66;5009571;28;20226;-73
2022/10/04 01:30:49;;;;;;;3.67;0.70;;;;;;;10.59;100.00;101126.75;5011027;28;20192;-73
2022/10/04 01:33:14;;;;;;;1.43;0.60;;;;;;;10.59;100.00;101113.09;5010985;28;20181;-74
2022/10/04 01:35:39;;;;;;;0.77;0.43;;;;;;;10.59;100.00;101118.56;5010599;28;20263;-73
2022/10/04 01:38:06;;;;;;;0.50;0.50;;;;;;;10.64;100.00;101110.28;5010940;28;20176;-73
2022/10/04 01:40:33;;;;;;;0.53;0.43;;;;;;;10.68;100.00;101114.84;5011004;28;20202;-76
2022/10/04 01:43:08;;;;;;;0.97;0.40;;;;;;;10.68;100.00;101108.56;5011053;28;20181;-75
2022/10/04 01:45:41;;;;;;;0.87;0.53;;;;;;;10.69;100.00;101108.25;5011023;28;20647;-76
2022/10/04 01:48:12;;;;;;;0.93;0.63;;;;;;;10.72;100.00;101098.69;5011020;28;20394;-76
2022/10/04 01:50:54;;;;;;;0.27;0.27;;;;;;;10.72;100.00;101104.16;5013794;28;20799;-75
2022/10/04 01:53:25;;;;;;;5.50;1.23;;;;;;;10.70;100.00;101109.91;5014846;28;20608;-76
2022/10/04 01:55:55;;;;;;;0.50;0.50;;;;;;;10.73;100.00;101106.59;5014776;28;20197;-76
2022/10/04 01:58:25;;;;;;;2.97;2.20;;;;;;;10.78;100.00;101102.16;5015049;28;20176;-75
2022/10/04 02:00:58;;;;;;;0.43;0.27;;;;;;;10.83;100.00;101102.88;5033803;28;20176;-76
2022/10/04 02:03:35;;;;;;;0.87;0.87;;;;;;;10.85;100.00;101105.31;5034347;28;20187;-76
2022/10/04 02:06:04;;;;;;;3.10;0.80;;;;;;;10.87;100.00;101109.38;5034206;28;20532;-75
2022/10/04 02:08:33;;;;;;;0.00;0.00;;;;;;;10.91;100.00;101113.16;5034189;28;20168;-76
2022/10/04 02:11:00;;;;;;;0.00;0.00;;;;;;;10.96;100.00;101121.25;5034131;28;20632;-76
2022/10/04 02:13:33;;;;;;;0.60;0.60;;;;;;;10.97;100.00;101108.41;5034236;28;20627;-74
2022/10/04 02:15:59;;;;;;;0.20;0.10;;;;;;;10.97;100.00;101109.22;5033699;28;20222;-75
2022/10/04 02:18:25;;;;;;;0.10;0.10;;;;;;;10.99;100.00;101100.72;5033924;28;20258;-74
2022/10/04 02:20:53;;;;;;;0.93;0.73;;;;;;;10.98;100.00;101101.81;5033962;28;20537;-75
2022/10/04 02:23:21;;;;;;;0.33;0.17;;;;;;;10.99;100.00;101089.78;5033804;28;20702;-75
2022/10/04 02:25:47;;;;;;;0.20;0.20;;;;;;;10.99;100.00;101087.03;5033525;28;20219;-75
2022/10/04 02:28:14;;;;;;;6.97;0.60;;;;;;;10.99;100.00;101081.56;5033783;28;20219;-76
2022/10/04 02:32:56;;;;;;;1.33;0.60;;;;;;;10.96;100.00;101077.50;5033686;28;20210;-75
2022/10/04 02:33:32;;;;;;;0.20;0.10;;;;;;;10.96;100.00;101088.44;5033677;28;20275;-75
2022/10/04 02:35:58;;;;;;;1.47;1.27;;;;;;;10.97;100.00;101083.78;5015797;28;20183;-75
2022/10/04 02:38:30;;;;;;;0.87;0.43;;;;;;;10.96;100.00;101082.16;5033734;28;20183;-74
2022/10/04 02:41:08;;;;;;;1.13;0.87;;;;;;;10.99;100.00;101084.31;5033493;28;20176;-74
2022/10/04 02:43:42;;;;;;;3.20;0.40;;;;;;;10.99;100.00;101076.09;5033572;28;20186;-75
2022/10/04 02:46:15;;;;;;;0.60;0.60;;;;;;;11.01;100.00;101090.31;5033186;28;20183;-75
2022/10/04 02:48:48;;;;;;;1.70;0.30;;;;;;;10.97;100.00;101081.88;5033379;28;20267;-75
2022/10/04 02:51:26;;;;;;;6.50;1.33;;;;;;;10.97;100.00;101079.13;5033421;28;20604;-75
2022/10/04 02:54:11;;;;;;;0.20;0.20;;;;;;;10.99;100.00;101073.38;5033392;28;20175;-74
2022/10/04 02:56:37;;;;;;;1.60;0.50;;;;;;;10.99;100.00;101065.16;5032845;28;20168;-75
2022/10/04 02:59:04;;;;;;;0.67;0.37;;;;;;;10.96;100.00;101058.38;5033241;28;20245;-75
2022/10/04 03:01:57;;;;;;;0.10;0.10;;;;;;;10.94;100.00;101065.25;5014367;28;20542;-75
2022/10/04 03:04:39;;;;;;;0.53;0.53;;;;;;;10.88;100.00;101058.25;5030383;28;20199;-75
2022/10/04 03:07:06;;;;;;;3.37;0.40;;;;;;;10.87;100.00;101053.91;5032581;28;20164;-75
2022/10/04 03:09:35;;;;;;;0.00;0.00;;;;;;;10.85;100.00;101058.84;5015134;28;20220;-75
2022/10/04 03:12:03;;;;;;;0.10;0.10;;;;;;;10.83;100.00;101066.53;5032788;28;20517;-75
2022/10/04 03:14:30;;;;;;;0.00;0.00;;;;;;;10.81;100.00;101058.63;5033118;28;20176;-75
2022/10/04 03:16:59;;;;;;;0.40;0.40;;;;;;;10.80;100.00;101053.47;5032386;28;20180;-75
2022/10/04 03:19:28;;;;;;;0.00;0.00;;;;;;;10.81;100.00;101055.09;5032523;28;20302;-75
2022/10/04 03:22:02;;;;;;;0.10;0.10;;;;;;;10.80;100.00;101053.47;5032383;28;20175;-75
2022/10/04 03:24:31;;;;;;;12.97;0.37;;;;;;;10.79;100.00;101060.84;5032594;28;20226;-73
2022/10/04 03:27:00;;;;;;;0.20;0.20;;;;;;;10.78;100.00;101058.41;5032338;28;20636;-74
2022/10/04 03:29:29;;;;;;;0.10;0.10;;;;;;;10.77;100.00;101052.13;5032394;28;20702;-76
2022/10/04 03:31:57;;;;;;;0.30;0.30;;;;;;;10.79;100.00;101052.66;5032379;28;20191;-74
2022/10/04 03:34:27;;;;;;;0.10;0.10;;;;;;;10.77;100.00;101043.13;5032512;28;20168;-74
2022/10/04 03:36:58;;;;;;;0.53;0.20;;;;;;;10.78;100.00;101047.47;5032112;28;20179;-75
2022/10/04 03:39:35;;;;;;;0.90;0.80;;;;;;;10.79;100.00;101051.84;5032404;28;20667;-75
2022/10/04 03:42:10;;;;;;;0.00;0.00;;;;;;;10.80;100.00;101051.53;5032409;28;20178;-75
2022/10/04 03:44:36;;;;;;;0.10;0.10;;;;;;;10.81;100.00;101046.88;5014964;28;20523;-75
2022/10/04 03:47:11;;;;;;;0.00;0.00;;;;;;;10.85;100.00;101061.56;5031893;28;20263;-74
2022/10/04 03:49:39;;;;;;;0.50;0.50;;;;;;;10.85;100.00;101053.38;5032267;28;20187;-75
2022/10/04 03:52:07;;;;;;;0.73;0.50;;;;;;;10.81;100.00;101050.44;5033371;28;20627;-75
2022/10/04 03:54:33;;;;;;;16.23;0.97;;;;;;;10.81;100.00;101044.16;5039279;28;20176;-74
2022/10/04 03:57:00;;;;;;;0.57;0.57;;;;;;;10.81;100.00;101052.34;5033123;28;20204;-75
2022/10/04 03:59:27;;;;;;;0.47;0.27;;;;;;;10.79;100.00;101044.44;5032176;28;20179;-74
2022/10/04 04:02:08;;;;;;;0.30;0.30;;;;;;;10.76;100.00;101036.03;5031941;28;20183;-75
2022/10/04 04:04:39;;;;;;;9.63;0.30;;;;;;;10.76;100.00;101036.03;5032284;28;20330;-75
2022/10/04 04:07:18;;;;;;;0.30;0.30;;;;;;;10.77;100.00;101040.41;5031864;28;20179;-74
2022/10/04 04:10:19;;;;;;;0.10;0.10;;;;;;;10.78;100.00;101031.88;5032056;28;20203;-74
2022/10/04 04:13:09;;;;;;;1.23;1.13;;;;;;;10.79;100.00;101033.50;5021754;28;20187;-75
2022/10/04 04:15:35;;;;;;;0.37;0.37;;;;;;;10.76;100.00;101028.66;4990298;28;20198;-74
2022/10/04 04:18:04;;;;;;;0.60;0.50;;;;;;;10.75;100.00;101020.75;5031576;28;20176;-75
2022/10/04 04:20:32;;;;;;;0.43;0.43;;;;;;;10.72;100.00;101025.72;5031751;28;20168;-74
2022/10/04 04:23:10;;;;;;;0.00;0.00;;;;;;;10.72;100.00;101028.44;5031234;28;20179;-75
2022/10/04 04:25:38;;;;;;;8.33;0.67;;;;;;;10.72;100.00;101022.97;5031089;28;20176;-74
2022/10/04 04:28:21;;;;;;;0.00;0.00;;;;;;;10.74;100.00;101017.22;5031179;28;20241;-75
2022/10/04 04:30:50;;;;;;;0.00;0.00;;;;;;;10.72;100.00;101022.97;5031167;28;20633;-74
2022/10/04 04:33:28;;;;;;;0.00;0.00;;;;;;;10.72;100.00;101028.44;5031571;28;20202;-75
2022/10/04 04:36:01;;;;;;;0.13;0.13;;;;;;;10.72;100.00;101027.63;5031281;28;20172;-73
2022/10/04 04:38:27;;;;;;;0.07;0.07;;;;;;;10.69;100.00;101015.34;5031295;28;20176;-74
2022/10/04 04:40:56;;;;;;;0.00;0.00;;;;;;;10.71;100.00;101020.53;5031045;28;20179;-74
2022/10/04 04:43:25;;;;;;;17.63;1.70;;;;;;;10.66;100.00;101020.59;5030932;28;20241;-74
2022/10/04 04:45:52;;;;;;;0.53;0.20;;;;;;;10.66;100.00;101018.69;5030669;28;20179;-74
2022/10/04 04:48:18;;;;;;;0.10;0.10;;;;;;;10.67;100.00;101024.97;5030907;28;20171;-75
2022/10/04 04:50:55;;;;;;;0.43;0.43;;;;;;;10.65;100.00;101011.59;5030802;28;20565;-75
2022/10/04 04:53:27;;;;;;;0.20;0.20;;;;;;;10.67;100.00;101012.09;5030940;28;20178;-74
2022/10/04 04:56:05;;;;;;;0.00;0.00;;;;;;;10.67;100.00;101009.38;5030595;28;20191;-73
2022/10/04 04:58:41;;;;;;;0.40;0.23;;;;;;;10.68;100.00;101015.66;5031659;28;20179;-74
2022/10/04 05:01:06;;;;;;;0.17;0.17;;;;;;;10.68;100.00;101015.66;5014849;28;20186;-75
2022/10/04 05:03:33;;;;;;;5.70;0.30;;;;;;;10.71;100.00;101013.16;5030730;28;20183;-74
2022/10/04 05:06:01;;;;;;;0.07;0.07;;;;;;;10.69;100.00;101018.09;5030442;28;20613;-75
2022/10/04 05:08:29;;;;;;;0.30;0.30;;;;;;;10.68;100.00;101018.38;5030749;28;20182;-75
2022/10/04 05:10:57;;;;;;;0.00;0.00;;;;;;;10.68;100.00;101021.13;5030634;28;20176;-75
2022/10/04 05:13:31;;;;;;;0.00;0.00;;;;;;;10.66;100.00;101013.22;5029174;28;20184;-76
2022/10/04 05:15:58;;;;;;;0.23;0.23;;;;;;;10.70;100.00;101018.91;5012585;28;20206;-75
2022/10/04 05:18:32;;;;;;;0.00;0.00;;;;;;;10.69;100.00;101030.94;5030453;28;20540;-74
2022/10/04 05:21:12;;;;;;;0.00;0.00;;;;;;;10.71;100.00;101040.50;5030462;28;20207;-75
2022/10/04 05:23:37;;;;;;;0.10;0.10;;;;;;;10.73;100.00;101040.19;5030188;28;20230;-75
2022/10/04 05:26:08;;;;;;;0.00;0.00;;;;;;;10.73;100.00;101037.44;5012207;28;20176;-74
2022/10/04 05:28:34;;;;;;;0.00;0.00;;;;;;;10.75;100.00;101037.16;5030490;28;20168;-75
2022/10/04 05:31:44;;;;;;;0.00;0.00;;;;;;;10.79;100.00;101046.38;5012644;28;20593;-74
2022/10/04 05:34:23;;;;;;;0.00;0.00;;;;;;;10.77;100.00;101051.31;5012711;28;20245;-74
2022/10/04 05:37:19;;;;;;;0.00;0.00;;;;;;;10.78;100.00;101042.81;5012585;28;20254;-75
2022/10/04 05:40:01;;;;;;;0.00;0.00;;;;;;;10.41;100.00;101039.03;5012495;28;20188;-74
2022/10/04 05:42:48;;;;;;;0.00;0.00;;;;;;;10.12;100.00;101036.38;5012539;28;20184;-76
2022/10/04 05:45:17;;;;;;;0.00;0.00;;;;;;;10.06;100.00;101034.81;5012523;28;20589;-75
2022/10/04 05:47:49;;;;;;;0.00;0.00;;;;;;;9.93;100.00;101032.00;5030372;28;20576;-76
2022/10/04 05:50:18;;;;;;;0.00;0.00;;;;;;;9.84;100.00;101035.41;5030080;28;20218;-74
2022/10/04 05:52:47;;;;;;;0.00;0.00;;;;;;;9.92;100.00;101033.09;5012334;28;20176;-75
2022/10/04 05:56:00;;;;;;;0.00;0.00;;;;;;;9.96;100.00;101029.50;5029678;28;20571;-77
2022/10/04 05:59:01;;;;;;;0.00;0.00;;;;;;;9.99;100.00;101026.19;4949582;29;20179;-75
2022/10/04 06:01:41;;;;;;;0.00;0.00;;;;;;;9.83;100.00;101024.75;5029966;28;20175;-75
2022/10/04 06:04:23;;;;;;;0.00;0.00;;;;;;;10.06;100.00;101021.19;5029934;28;20184;-75
2022/10/04 06:07:03;;;;;;;0.00;0.00;;;;;;;10.23;100.00;101026.16;5029614;28;20179;-74
2022/10/04 06:09:47;;;;;;;0.00;0.00;;;;;;;10.14;100.00;101020.53;5030067;28;20547;-74
2022/10/04 06:12:25;;;;;;;0.00;0.00;;;;;;;10.04;100.00;101017.94;5028588;28;20183;-73
2022/10/04 06:15:16;;;;;;;0.00;0.00;;;;;;;10.03;100.00;101019.03;5029897;28;20167;-74
2022/10/04 06:17:58;;;;;;;0.00;0.00;;;;;;;9.85;100.00;101019.84;5029593;28;20161;-74
2022/10/04 06:20:45;;;;;;;0.00;0.00;;;;;;;9.97;100.00;101027.56;5029693;28;20434;-74
2022/10/04 06:23:19;;;;;;;0.00;0.00;;;;;;;10.01;100.00;101025.91;5029673;28;20176;-74
2022/10/04 06:26:04;;;;;;;0.00;0.00;;;;;;;10.09;100.00;101036.97;5011726;28;20163;-73
2022/10/04 06:28:38;;;;;;;0.00;0.00;;;;;;;10.36;100.00;101043.72;5029755;28;20262;-73
2022/10/04 06:31:37;;;;;;;0.00;0.00;;;;;;;10.55;100.00;101050.00;5018496;28;20671;-73
2022/10/04 06:34:11;;;;;;;1.53;1.47;;;;;;;10.68;100.00;101049.25;5004935;28;20169;-73
2022/10/04 06:36:49;;;;;;;0.00;0.00;;;;;;;10.75;100.00;101053.53;4993388;28;20169;-71
2022/10/04 06:39:32;;;;;;;0.00;0.00;;;;;;;10.86;100.00;101060.47;5014001;28;20242;-74
2022/10/04 06:42:12;;;;;;;0.00;0.00;;;;;;;10.96;100.00;101065.75;5013661;28;20637;-73
2022/10/04 06:44:56;;;;;;;0.00;0.00;;;;;;;11.03;100.00;101072.50;5016351;28;20179;-74
2022/10/04 06:47:43;;;;;;;0.00;0.00;;;;;;;10.96;100.00;101061.09;4995871;28;20176;-77
2022/10/04 06:50:33;;;;;;;0.00;0.00;;;;;;;10.89;100.00;101057.97;5013480;28;20193;-77
2022/10/04 06:53:15;;;;;;;0.00;0.00;;;;;;;10.70;100.00;101058.00;5030559;28;20175;-76
2022/10/04 06:56:08;;;;;;;0.00;0.00;;;;;;;10.70;100.00;101066.19;5033240;28;20428;-77
2022/10/04 06:59:12;;;;;;;0.00;0.00;;;;;;;10.76;100.00;101077.03;5033146;28;20178;-76
2022/10/04 07:01:48;;;;;;;0.00;0.00;;;;;;;10.74;100.00;101074.59;5033265;28;20186;-78
2022/10/04 07:04:27;;;;;;;0.00;0.00;;;;;;;10.56;100.00;101070.78;5033233;28;20245;-76
2022/10/04 07:10:18;;;;;;;0.00;0.00;;;;;;;10.88;100.00;101070.00;4988504;28;20223;-76
2022/10/04 07:13:05;;;;;;;0.00;0.00;;;;;;;10.98;100.00;101067.09;5033042;28;20210;-77
2022/10/04 07:15:41;;;;;;;0.00;0.00;;;;;;;10.91;100.00;101063.13;5032718;28;20164;-78
2022/10/04 07:18:14;;;;;;;0.00;0.00;;;;;;;10.90;100.00;101059.56;5033071;28;20254;-77
2022/10/04 07:20:40;;;;;;;0.00;0.00;;;;;;;10.95;100.00;101055.94;5032654;28;20175;-74
2022/10/04 07:23:14;;;;;;;0.00;0.00;;;;;;;10.94;100.00;101055.13;5014836;28;20189;-74
2022/10/04 07:25:50;;;;;;;5.70;3.50;;;;;;;10.83;100.00;101047.38;5012828;28;20177;-74
2022/10/04 07:31:19;;;;;;;0.00;0.00;;;;;;;10.84;100.00;101046.28;5023214;28;20186;-74
2022/10/04 07:33:50;;;;;;;0.00;0.00;;;;;;;10.90;100.00;101036.91;5022660;28;20543;-75
2022/10/04 07:36:28;;;;;;;0.00;0.00;;;;;;;10.91;100.00;101041.25;5024520;28;20182;-76
2022/10/04 07:39:04;;;;;;;0.00;0.00;;;;;;;11.00;100.00;101040.28;5032050;28;20179;-77
2022/10/04 07:41:48;;;;;;;0.00;0.00;;;;;;;11.14;100.00;101036.75;5019575;28;20185;-78
2022/10/04 07:44:33;;;;;;;0.10;0.10;;;;;;;11.29;100.00;101042.78;4994532;28;20530;-77
2022/10/04 07:47:18;;;;;;;0.00;0.00;;;;;;;11.47;100.00;101045.75;5020882;28;20204;-77
2022/10/04 07:49:44;;;;;;;0.00;0.00;;;;;;;11.58;100.00;101044.44;5014160;28;20199;-76
2022/10/04 07:52:43;;;;;;;0.00;0.00;;;;;;;11.70;100.00;101055.66;5032005;28;20242;-77
2022/10/04 07:55:20;;;;;;;0.00;0.00;;;;;;;11.71;100.00;101053.75;5032029;28;20649;-72
2022/10/04 07:58:06;;;;;;;0.00;0.00;;;;;;;11.81;100.00;101059.88;5031873;28;20183;-75
2022/10/04 08:00:53;;;;;;;0.00;0.00;;;;;;;11.84;100.00;101069.41;4992371;28;20211;-77
2022/10/04 08:03:38;;;;;;;0.00;0.00;;;;;;;11.89;100.00;101067.38;4992279;28;20189;-82
2022/10/04 08:06:11;;;;;;;0.00;0.00;;;;;;;11.89;100.00;101075.59;4992066;28;20177;-78
2022/10/04 08:09:15;;;;;;;0.00;0.00;;;;;;;11.80;100.00;101068.38;4992595;28;20181;-75
2022/10/04 08:12:00;;;;;;;0.00;0.00;;;;;;;11.96;100.00;101071.63;4950644;29;20273;-75
2022/10/04 08:15:04;;;;;;;0.00;0.00;;;;;;;12.22;100.00;101075.47;4951726;28;20185;-73
2022/10/04 08:17:59;;;;;;;1.87;1.80;;;;;;;12.30;100.00;101062.97;5005484;28;20262;-73
2022/10/04 08:20:53;;;;;;;0.50;0.50;;;;;;;12.29;96.55;101069.56;5011379;28;20176;-73
2022/10/04 08:23:38;;;;;;;0.20;0.20;;;;;;;12.41;95.83;101065.16;5010762;28;20515;-73
2022/10/04 08:26:26;;;;;;;0.00;0.00;;;;;;;12.51;95.78;101067.69;5011217;28;20259;-74
2022/10/04 08:32:03;;;;;;;0.30;0.30;;;;;;;12.60;94.65;101065.03;5011440;28;20203;-73
2022/10/04 08:34:47;;;;;;;0.00;0.00;;;;;;;12.62;93.32;101059.22;5011359;28;20272;-73
2022/10/04 08:37:27;;;;;;;0.50;0.50;;;;;;;12.68;93.57;101064.28;5010849;28;20176;-73
2022/10/04 08:39:55;;;;;;;3.87;1.87;;;;;;;12.74;93.70;101063.06;4993416;28;20176;-74
2022/10/04 08:42:26;;;;;;;0.20;0.20;;;;;;;12.70;90.98;101062.03;5011123;28;20190;-73
2022/10/04 08:45:25;;;;;;;1.07;0.73;;;;;;;12.73;91.03;101068.81;5011242;28;20177;-72
2022/10/04 08:48:23;;;;;;;0.00;0.00;;;;;;;12.75;89.75;101066.59;5010748;28;20177;-73
2022/10/04 08:50:51;;;;;;;0.57;0.57;;;;;;;12.94;90.55;101072.72;5010966;28;20607;-73
2022/10/04 08:53:17;;;;;;;0.00;0.00;;;;;;;13.10;89.23;101064.91;5010940;28;20176;-73
2022/10/04 08:56:04;;;;;;;0.20;0.20;;;;;;;13.27;89.19;101065.03;5010610;28;20179;-73
2022/10/04 08:58:50;;;;;;;0.33;0.33;;;;;;;13.42;87.62;101063.00;5010656;28;20234;-73
2022/10/04 09:01:44;;;;;;;0.63;0.57;;;;;;;13.47;86.18;101058.22;5010683;28;20176;-74
2022/10/04 09:04:34;;;;;;;1.60;0.73;;;;;;;13.52;85.82;101060.00;4990987;28;20185;-73
2022/10/04 09:07:34;;;;;;;0.17;0.17;;;;;;;13.67;86.50;101060.41;4991185;28;20177;-73
2022/10/04 09:10:12;;;;;;;6.77;0.93;;;;;;;13.62;85.08;101063.28;4991168;28;20509;-73
2022/10/04 09:13:12;;;;;;;0.53;0.43;;;;;;;13.64;84.65;101063.78;4990979;28;20179;-73
2022/10/04 09:15:52;;;;;;;0.00;0.00;;;;;;;13.75;85.78;101067.06;4974634;28;20609;-73
2022/10/04 09:18:25;;;;;;;0.00;0.00;;;;;;;13.87;85.76;101064.50;4973518;28;20181;-73
2022/10/04 09:21:32;;;;;;;0.40;0.40;;;;;;;13.97;84.41;101064.22;4989592;28;20189;-75
2022/10/04 09:24:27;;;;;;;0.00;0.00;;;;;;;14.03;83.91;101070.34;4971465;28;20205;-75
2022/10/04 09:27:14;;;;;;;0.50;0.47;;;;;;;14.14;83.48;101054.38;4949082;29;20213;-75
2022/10/04 09:30:10;;;;;;;0.37;0.37;;;;;;;14.26;83.58;101060.88;4997295;28;20342;-74
2022/10/04 09:33:12;;;;;;;1.27;0.83;;;;;;;14.26;81.65;101063.63;5010843;28;20168;-75
2022/10/04 09:35:52;;;;;;;0.03;0.03;;;;;;;14.25;81.37;101055.72;5010333;28;20184;-74
2022/10/04 09:38:43;;;;;;;0.30;0.30;;;;;;;14.35;82.38;101063.66;5010870;28;20169;-75
2022/10/04 09:41:27;;;;;;;0.47;0.47;;;;;;;14.39;80.97;101061.06;5010384;28;20215;-75
2022/10/04 09:44:23;;;;;;;7.77;1.07;;;;;;;14.44;81.64;101064.50;5008440;28;20463;-74
2022/10/04 09:46:50;;;;;;;0.40;0.40;;;;;;;14.42;80.32;101063.16;5008183;28;20172;-75
2022/10/04 09:49:26;;;;;;;0.53;0.53;;;;;;;14.40;80.45;101059.94;5010521;28;20208;-74
2022/10/04 09:52:16;;;;;;;1.03;0.70;;;;;;;14.51;82.03;101058.53;5010829;28;20255;-75
2022/10/04 09:55:20;;;;;;;2.57;1.60;;;;;;;14.53;81.38;101056.25;5010941;28;20168;-75
2022/10/04 09:58:17;;;;;;;2.03;1.03;;;;;;;14.52;78.96;101060.16;5009789;28;20199;-74
2022/10/04 10:00:50;;;;;;;4.13;1.00;;;;;;;14.57;80.07;101049.78;5010577;28;20239;-74
2022/10/04 10:03:52;;;;;;;0.13;0.13;;;;;;;14.64;80.47;101046.56;5010226;28;20258;-72
2022/10/04 10:06:23;;;;;;;0.00;0.00;;;;;;;14.69;78.61;101042.84;5002206;28;20613;-75
2022/10/04 10:09:00;;;;;;;11.27;0.97;;;;;;;14.91;79.62;101041.84;5009250;28;20692;-75
2022/10/04 10:14:59;;;;;;;0.17;0.10;;;;;;;15.19;77.09;101032.09;5007624;28;20691;-75
2022/10/04 10:17:39;;;;;;;1.17;0.43;;;;;;;15.29;76.87;101042.72;5013335;28;20212;-75
2022/10/04 10:20:39;;;;;;;0.07;0.07;;;;;;;15.42;75.86;101030.69;5013813;28;20716;-75
2022/10/04 10:23:26;;;;;;;2.23;1.07;;;;;;;15.74;76.06;101028.50;5013043;28;20196;-75
2022/10/04 10:26:33;;;;;;;1.70;0.30;;;;;;;15.76;75.07;101026.19;5014645;28;20188;-75
2022/10/04 10:29:07;;;;;;;0.67;0.60;;;;;;;15.67;72.98;101022.69;4951517;28;20213;-72
2022/10/04 10:32:12;;;;;;;0.00;0.00;;;;;;;15.46;73.86;101028.91;4993431;28;20362;-75
2022/10/04 10:35:01;;;;;;;0.10;0.10;;;;;;;15.33;74.89;101026.34;5011516;28;20180;-75
2022/10/04 10:37:56;;;;;;;0.03;0.03;;;;;;;15.23;74.79;101018.47;4995573;28;20553;-75
2022/10/04 10:40:39;;;;;;;2.40;2.30;;;;;;;15.20;74.96;101028.19;5013611;28;20239;-73
2022/10/04 10:43:17;;;;;;;0.00;0.00;;;;;;;15.20;74.33;101017.19;5013726;28;20183;-75
2022/10/04 10:46:10;;;;;;;3.43;3.23;;;;;;;15.42;75.16;101018.88;5013427;28;20172;-75
2022/10/04 10:48:57;;;;;;;0.00;0.00;;;;;;;15.52;73.98;101020.47;5013460;28;20165;-75
2022/10/04 10:51:48;;;;;;;0.20;0.20;;;;;;;15.68;73.57;101025.13;5012984;28;20207;-75
2022/10/04 10:54:33;;;;;;;1.40;1.10;;;;;;;15.69;71.96;101023.19;5013459;28;20180;-75
2022/10/04 10:57:25;;;;;;;0.10;0.00;;;;;;;15.66;72.03;101021.91;5012252;28;20185;-73
2022/10/04 11:00:16;;;;;;;0.00;0.00;;;;;;;15.73;70.96;101016.66;4993714;28;20177;-75
2022/10/04 11:03:16;;;;;;;0.40;0.20;;;;;;;15.91;72.15;101009.13;4992827;28;20288;-74
2022/10/04 11:06:00;;;;;;;0.93;0.30;;;;;;;15.95;71.49;101001.00;5008087;28;20189;-74
2022/10/04 11:09:02;;;;;;;0.00;0.00;;;;;;;15.89;71.27;100992.09;5020628;28;20185;-75
2022/10/04 11:11:41;;;;;;;0.67;0.30;;;;;;;16.09;72.15;100978.69;5018457;28;20176;-74
2022/10/04 11:14:54;;;;;;;0.20;0.20;;;;;;;15.99;71.71;100988.97;5018858;28;20180;-75
2022/10/04 11:17:30;;;;;;;0.07;0.00;;;;;;;16.00;69.99;100985.06;4972726;28;20197;-75
2022/10/04 11:20:14;;;;;;;1.33;1.23;;;;;;;16.08;70.22;100993.63;5010992;28;20184;-74
2022/10/04 11:23:11;;;;;;;2.37;1.67;;;;;;;16.25;71.54;100985.22;4985948;28;20176;-75
2022/10/04 11:26:06;;;;;;;0.73;0.73;;;;;;;16.16;69.97;100981.72;5010847;28;20180;-74
2022/10/04 11:28:55;;;;;;;0.00;0.00;;;;;;;16.08;69.47;100972.38;4996557;28;20181;-75
2022/10/04 11:31:26;;;;;;;0.00;0.00;;;;;;;16.32;71.73;100969.72;4994602;28;20185;-75
2022/10/04 11:34:16;;;;;;;0.13;0.13;;;;;;;16.45;70.17;100967.84;4994610;28;20169;-75
2022/10/04 11:37:19;;;;;;;4.03;1.10;;;;;;;16.59;69.20;100962.84;5017298;28;20179;-75
2022/10/04 11:40:05;;;;;;;0.47;0.47;;;;;;;16.73;68.24;100972.81;5031914;28;20255;-75
2022/10/04 11:42:49;;;;;;;0.50;0.50;;;;;;;16.57;68.95;100967.91;5030935;28;20176;-75
2022/10/04 11:45:32;;;;;;;0.00;0.00;;;;;;;16.53;68.35;100955.94;5031938;28;20635;-74
2022/10/04 11:48:08;;;;;;;0.03;0.03;;;;;;;16.69;69.56;100963.59;5031569;28;20163;-75
2022/10/04 11:51:06;;;;;;;0.00;0.00;;;;;;;16.76;68.49;100961.09;5031598;28;20675;-75
2022/10/04 11:54:09;;;;;;;0.00;0.00;;;;;;;16.83;69.37;100959.41;5031680;28;20179;-75
2022/10/04 11:56:58;;;;;;;1.03;0.73;;;;;;;16.94;69.21;100954.25;5013729;28;20180;-74
2022/10/04 11:59:47;;;;;;;0.20;0.20;;;;;;;17.08;68.80;100957.50;5030791;28;20188;-75
2022/10/04 12:02:50;;;;;;;0.57;0.57;;;;;;;16.93;67.76;100950.69;5031652;28;20688;-75
2022/10/04 12:05:45;;;;;;;0.00;0.00;;;;;;;16.91;68.80;100954.91;5020141;28;20559;-75
2022/10/04 12:08:21;;;;;;;0.07;0.07;;;;;;;16.99;67.76;100944.94;5011467;28;20180;-73
2022/10/04 12:11:05;;;;;;;0.30;0.30;;;;;;;17.03;67.34;100940.34;5011427;28;20243;-75
2022/10/04 12:13:55;;;;;;;0.10;0.10;;;;;;;17.08;68.45;100945.66;4994711;28;20223;-72
2022/10/04 12:16:55;;;;;;;0.00;0.00;;;;;;;17.19;68.74;100930.22;5029664;28;20258;-73
2022/10/04 12:19:41;;;;;;;6.77;0.40;;;;;;;17.34;69.25;100926.78;5011486;28;20285;-73
2022/10/04 12:22:25;;;;;;;11.87;0.83;;;;;;;17.27;67.71;100925.75;5030094;28;20230;-74
2022/10/04 12:25:18;;;;;;;0.00;0.00;;;;;;;17.33;67.51;100921.59;5031534;28;20643;-73
2022/10/04 12:28:11;;;;;;;0.00;0.00;;;;;;;17.25;66.42;100915.88;5029560;28;20184;-74
2022/10/04 12:31:08;;;;;;;0.17;0.10;;;;;;;17.32;65.96;100906.19;5034263;28;20203;-77